Hauptseite
METAR-TAF:

METAR-TAF

Flughäfen :

Memmingen, Deutschland

Breite: 47-59-33N, Länge: 10-14-37E, Höhe: 633 m

Beobachtung

Neuester Wetterbericht von vor 20 Minuten, um 12:20 UTC
Wind 3 kt aus Süd/Südwest, variierte zwischen Süd/Südost und West/Nordwest
Temperatur 7°C
Luftfeuchtigkeit 57%
Luftdruck 1005 hPa
Sichtweite 10 km oder mehr
Leicht bewölkt in der Höhe von 3300 ft

METAR: EDJA 241220Z 21003KT 160V300 9999 FEW033 07/M01 Q1005

Zeit: 13:40 (12:40 UTC)

Prognose

Neuester Wetterbericht von vor 1 Stunde und 40 Minuten, um 11:00 UTC
Gültige Prognose vom 24 um 12 UTC bis 24 um 21 UTC
Wind 8 kt aus Südwest
Sichtweite 10 km oder mehr
Aufgelockert bewölkt in der Höhe von 4000 ft
Übergehend zu
vom 24 um 14 UTC bis 24 um 16 UTC
Wind 3 kt aus Süd/Südost

TAF: EDJA 241100Z 2412/2421 22008KT 9999 SCT040 BECMG 2414/2416 15003KT

Wetterbeobachtungen und Prognosen von mehr als 4000 Flughäfen (METAR und TAF Bericht).

Die verfügbaren Stationen werden durch gelbe und rote Markierungen auf der Karte dargestellt.

Führen Sie die Maus auf sie, um den Namen der Station zu sehen.

Darauf klicken, um die Beobachtung von Wetterbeobachtungen und Prognosen zu sehen.

Um die Karte zu ändern : klicken Sie auf den grünen Tasten mit einem schwarzen Kreuz Zum Vergrößern, auf den grünen Button mit einem Gedankenstrich zu verkleinern, oder auf die grünen Pfeile für benachbarte Karten.


METAR-TAF: